Time;durP1;ratioP1;P1;durP2;ratioP2;P2;SDS_P1;SDS_P2;PMS_P1;PMS_P2;Temp;Humidity;BMP_temperature;BMP_pressure;BME280_temperature;BME280_humidity;BME280_pressure;Samples;Min_cycle;Max_cycle;Signal;HPM_P1;HPM_P2
2021/03/28 00:20:57;;;;;;;5.15;2.65;;;;;;;;;;10432661;28;20549;-88
2021/03/28 02:59:57;;;;;;;8.27;2.97;;;;;;;;;;10482097;22;20056;-86
2021/03/28 03:05:27;;;;;;;5.68;2.92;;;;;;;;;;10452599;28;20033;-86
2021/03/28 03:10:52;;;;;;;5.05;2.20;;;;;;;;;;10275758;28;20047;-85
2021/03/28 03:16:08;;;;;;;7.32;2.78;;;;;;;;;;10265276;29;20042;-85
2021/03/28 03:21:28;;;;;;;4.88;2.90;;;;;;;;;;10279235;29;20428;-87
2021/03/28 03:26:51;;;;;;;7.15;3.08;;;;;;;;;;10351920;28;20411;-85
2021/03/28 03:31:52;;;;;;;5.80;2.53;;;;;;;;;;10413548;28;20084;-86
2021/03/28 03:37:02;;;;;;;7.82;2.97;;;;;;;;;;10423717;28;20033;-86
2021/03/28 03:42:27;;;;;;;3.70;2.15;;;;;;;;;;10428588;28;20056;-85
2021/03/28 03:47:40;;;;;;;5.47;2.67;;;;;;;;;;10420691;28;20053;-86
2021/03/28 03:52:56;;;;;;;5.28;2.40;;;;;;;;;;10411652;28;20040;-85
2021/03/28 03:58:22;;;;;;;5.45;2.38;;;;;;;;;;10411857;28;20570;-86
2021/03/28 04:03:50;;;;;;;6.25;2.80;;;;;;;;;;10424468;28;20068;-85
2021/03/28 04:08:55;;;;;;;;;;;;;;;;;;10414826;28;20034;-86
2021/03/28 04:14:05;;;;;;;5.57;2.45;;;;;;;;;;10417109;28;19935;-86
2021/03/28 04:19:19;;;;;;;4.70;2.10;;;;;;;;;;10424403;28;20034;-86
2021/03/28 04:24:20;;;;;;;3.80;2.20;;;;;;;;;;10440736;28;20041;-84
2021/03/28 04:29:22;;;;;;;4.65;2.20;;;;;;;;;;10442587;28;20085;-84
2021/03/28 04:34:43;;;;;;;5.25;2.28;;;;;;;;;;10425532;28;20044;-86
2021/03/28 04:40:03;;;;;;;5.07;2.42;;;;;;;;;;10393795;28;20040;-87
2021/03/28 04:45:23;;;;;;;4.80;2.08;;;;;;;;;;10425458;28;20040;-85
2021/03/28 04:50:43;;;;;;;4.20;2.00;;;;;;;;;;10416310;28;20116;-85
2021/03/28 04:55:50;;;;;;;4.55;1.92;;;;;;;;;;10425256;28;20041;-85
2021/03/28 05:00:51;;;;;;;5.38;2.40;;;;;;;;;;10426035;28;20047;-86
2021/03/28 05:06:22;;;;;;;5.07;1.98;;;;;;;;;;10418321;28;20068;-86
2021/03/28 05:11:26;;;;;;;6.25;2.25;;;;;;;;;;10366268;28;20499;-86
2021/03/28 05:16:27;;;;;;;3.53;1.83;;;;;;;;;;10418152;28;20057;-85
2021/03/28 05:21:46;;;;;;;5.32;2.28;;;;;;;;;;10413174;28;20038;-85
2021/03/28 05:26:56;;;;;;;5.30;1.77;;;;;;;;;;10413419;28;20057;-85
2021/03/28 05:32:16;;;;;;;4.72;1.80;;;;;;;;;;10414157;28;20045;-86
2021/03/28 05:37:36;;;;;;;4.60;2.03;;;;;;;;;;10413720;28;20088;-85
2021/03/28 05:42:56;;;;;;;4.53;2.00;;;;;;;;;;10411808;28;20061;-86
2021/03/28 05:48:06;;;;;;;3.67;1.67;;;;;;;;;;10412190;28;20037;-86
2021/03/28 05:53:30;;;;;;;6.38;2.30;;;;;;;;;;10413094;28;20044;-87
2021/03/28 05:58:49;;;;;;;2.70;1.40;;;;;;;;;;10417946;28;20042;-86
2021/03/28 06:03:50;;;;;;;;;;;;;;;;;;10439427;28;20048;-86
2021/03/28 06:09:00;;;;;;;4.78;2.13;;;;;;;;;;10424432;28;19943;-86
2021/03/28 06:14:28;;;;;;;4.53;2.00;;;;;;;;;;10425922;28;20120;-86
2021/03/28 06:19:47;;;;;;;3.28;1.75;;;;;;;;;;10423055;28;20040;-86
2021/03/28 06:24:58;;;;;;;4.25;1.95;;;;;;;;;;10423361;28;20065;-85
2021/03/28 06:30:05;;;;;;;3.72;1.80;;;;;;;;;;10418031;28;20045;-86
2021/03/28 06:35:26;;;;;;;4.28;2.03;;;;;;;;;;10421024;28;20100;-85
2021/03/28 06:40:49;;;;;;;4.30;1.80;;;;;;;;;;10443562;28;20030;-85
2021/03/28 06:45:53;;;;;;;3.60;1.73;;;;;;;;;;10431464;28;20033;-85
2021/03/28 06:51:13;;;;;;;5.32;2.40;;;;;;;;;;10425566;28;20044;-85
2021/03/28 06:56:22;;;;;;;4.65;1.70;;;;;;;;;;10435767;28;20045;-86
2021/03/28 07:01:43;;;;;;;5.25;1.83;;;;;;;;;;10439300;28;20053;-86
2021/03/28 07:07:07;;;;;;;3.63;1.50;;;;;;;;;;10421667;28;20033;-86
2021/03/28 07:12:44;;;;;;;4.57;1.90;;;;;;;;;;10410343;28;20034;-85
2021/03/28 07:17:45;;;;;;;5.15;2.05;;;;;;;;;;10344401;28;20140;-85
2021/03/28 07:22:59;;;;;;;4.88;2.10;;;;;;;;;;10425890;28;20037;-85
2021/03/28 07:28:09;;;;;;;3.00;1.55;;;;;;;;;;10444887;28;20060;-86
2021/03/28 07:33:17;;;;;;;4.85;1.95;;;;;;;;;;10424535;28;20097;-86
2021/03/28 07:38:38;;;;;;;3.97;1.73;;;;;;;;;;10422634;28;20208;-85
2021/03/28 07:44:00;;;;;;;4.95;1.75;;;;;;;;;;10418264;28;20035;-85
2021/03/28 07:49:20;;;;;;;3.60;1.63;;;;;;;;;;10422067;28;20101;-85
2021/03/28 07:54:42;;;;;;;4.80;1.92;;;;;;;;;;10421062;28;20080;-85
2021/03/28 07:59:59;;;;;;;3.70;1.50;;;;;;;;;;10418699;28;20037;-85
2021/03/28 08:05:09;;;;;;;4.43;2.00;;;;;;;;;;10425978;28;20043;-85
2021/03/28 08:10:12;;;;;;;;;;;;;;;;;;10422096;28;20129;-85
2021/03/28 08:15:27;;;;;;;3.75;1.60;;;;;;;;;;10426988;28;19932;-85
2021/03/28 08:20:48;;;;;;;4.28;1.70;;;;;;;;;;10430327;28;20041;-85
2021/03/28 08:26:07;;;;;;;3.65;1.90;;;;;;;;;;10426052;28;20045;-85
2021/03/28 08:31:28;;;;;;;4.40;2.00;;;;;;;;;;10423960;28;20033;-86
2021/03/28 08:36:50;;;;;;;5.80;2.17;;;;;;;;;;10425103;28;20102;-84
2021/03/28 08:42:09;;;;;;;5.95;1.85;;;;;;;;;;10426828;28;20033;-85
2021/03/28 08:47:32;;;;;;;5.78;1.98;;;;;;;;;;10425912;28;20029;-85
2021/03/28 08:53:20;;;;;;;5.30;1.90;;;;;;;;;;10430315;28;20033;-85
2021/03/28 08:58:31;;;;;;;5.80;1.90;;;;;;;;;;10389073;22;20143;-84
2021/03/28 09:03:50;;;;;;;6.70;2.28;;;;;;;;;;10468598;28;20406;-86
2021/03/28 09:08:54;;;;;;;6.40;2.20;;;;;;;;;;10460182;28;20039;-86
2021/03/28 09:14:14;;;;;;;5.20;1.90;;;;;;;;;;10463194;28;20033;-86
2021/03/28 09:19:20;;;;;;;5.15;2.08;;;;;;;;;;10464729;28;20036;-87
2021/03/28 09:24:40;;;;;;;3.83;1.70;;;;;;;;;;10459156;28;20044;-87
2021/03/28 09:29:56;;;;;;;3.42;1.85;;;;;;;;;;10463745;28;20128;-86
2021/03/28 09:35:05;;;;;;;4.95;1.90;;;;;;;;;;10470173;28;20105;-86
2021/03/28 09:40:11;;;;;;;4.07;2.10;;;;;;;;;;10461578;28;20029;-86
2021/03/28 09:45:32;;;;;;;8.25;2.10;;;;;;;;;;10457182;28;20090;-86
2021/03/28 09:50:55;;;;;;;4.53;1.98;;;;;;;;;;10492465;28;20048;-85
2021/03/28 09:56:15;;;;;;;4.63;2.00;;;;;;;;;;10462294;28;20044;-84
2021/03/28 10:01:35;;;;;;;5.68;2.13;;;;;;;;;;10476792;28;20045;-85
2021/03/28 10:06:37;;;;;;;;;;;;;;;;;;10479208;28;20079;-85
2021/03/28 10:12:14;;;;;;;4.03;1.67;;;;;;;;;;10472258;28;19904;-85
2021/03/28 10:17:28;;;;;;;5.38;1.80;;;;;;;;;;10377403;28;20048;-85
2021/03/28 10:22:46;;;;;;;4.60;1.60;;;;;;;;;;10474447;28;20105;-85
2021/03/28 10:28:00;;;;;;;5.70;1.63;;;;;;;;;;10474956;28;20033;-86
2021/03/28 10:33:07;;;;;;;4.75;1.60;;;;;;;;;;10482438;28;20052;-86
2021/03/28 10:38:26;;;;;;;5.18;1.85;;;;;;;;;;10463577;28;20036;-86
2021/03/28 10:43:46;;;;;;;5.07;1.50;;;;;;;;;;10465637;28;20449;-85
2021/03/28 10:48:50;;;;;;;5.50;1.77;;;;;;;;;;10462121;28;20045;-85
2021/03/28 10:53:56;;;;;;;5.87;1.53;;;;;;;;;;10463980;28;20090;-86
2021/03/28 10:59:09;;;;;;;3.90;1.50;;;;;;;;;;10460054;28;20052;-86
2021/03/28 11:04:33;;;;;;;4.05;1.58;;;;;;;;;;10463149;28;20059;-85
2021/03/28 11:09:53;;;;;;;7.00;1.58;;;;;;;;;;10457864;28;20037;-85
2021/03/28 11:15:19;;;;;;;5.63;1.77;;;;;;;;;;10458773;28;20452;-84
2021/03/28 11:20:48;;;;;;;3.17;1.50;;;;;;;;;;10456868;28;20025;-85
2021/03/28 11:25:59;;;;;;;2.83;1.50;;;;;;;;;;10463269;28;20549;-85
2021/03/28 11:30:59;;;;;;;;;;;;;;;;;;10464424;28;20036;-85
2021/03/28 11:36:02;;;;;;;4.60;1.58;;;;;;;;;;10466118;28;19909;-85
2021/03/28 11:41:08;;;;;;;4.85;1.50;;;;;;;;;;10474821;28;20486;-85
2021/03/28 11:46:28;;;;;;;4.07;1.42;;;;;;;;;;10469448;28;20119;-85
2021/03/28 11:51:38;;;;;;;6.72;1.98;;;;;;;;;;10470763;28;20048;-86
2021/03/28 11:56:53;;;;;;;7.40;2.58;;;;;;;;;;10476042;28;20072;-85
2021/03/28 12:06:57;;;;;;;5.15;1.55;;;;;;;;;;10481802;28;20040;-87
2021/03/28 12:12:13;;;;;;;3.50;1.58;;;;;;;;;;10462609;28;20055;-87
2021/03/28 12:17:15;;;;;;;4.85;1.80;;;;;;;;;;10463472;28;20048;-86
2021/03/28 12:22:35;;;;;;;6.70;1.70;;;;;;;;;;10461809;28;20040;-87
2021/03/28 12:27:41;;;;;;;5.30;1.70;;;;;;;;;;10461751;28;20033;-87
2021/03/28 12:33:10;;;;;;;5.70;1.70;;;;;;;;;;10470362;28;20037;-85
2021/03/28 12:38:23;;;;;;;3.53;1.63;;;;;;;;;;10488887;28;20085;-86
2021/03/28 12:43:35;;;;;;;3.53;1.52;;;;;;;;;;10460919;28;20521;-85
2021/03/28 12:48:41;;;;;;;4.47;1.63;;;;;;;;;;10458697;28;20048;-85
2021/03/28 12:53:42;;;;;;;5.53;1.77;;;;;;;;;;10461490;28;20033;-85
2021/03/28 12:58:45;;;;;;;5.47;1.70;;;;;;;;;;10459994;28;20093;-85
2021/03/28 13:03:47;;;;;;;4.00;1.42;;;;;;;;;;10459008;28;20052;-85
2021/03/28 13:08:54;;;;;;;6.45;1.83;;;;;;;;;;10460541;28;20371;-84
2021/03/28 13:13:55;;;;;;;4.03;1.60;;;;;;;;;;10460099;28;20049;-86
2021/03/28 13:18:58;;;;;;;4.97;1.73;;;;;;;;;;10465715;28;20043;-85
2021/03/28 13:24:07;;;;;;;4.95;1.50;;;;;;;;;;10467597;28;20028;-86
2021/03/28 13:29:16;;;;;;;6.93;1.93;;;;;;;;;;10466302;28;20043;-85
2021/03/28 13:34:37;;;;;;;8.23;1.92;;;;;;;;;;10463527;28;20048;-86
2021/03/28 13:39:54;;;;;;;4.25;1.80;;;;;;;;;;10469708;28;20029;-85
2021/03/28 13:45:00;;;;;;;4.55;1.80;;;;;;;;;;10465797;28;20033;-86
2021/03/28 13:50:17;;;;;;;3.13;1.40;;;;;;;;;;10473732;28;20060;-86
2021/03/28 13:55:37;;;;;;;4.90;1.70;;;;;;;;;;10474438;28;20033;-85
2021/03/28 14:00:38;;;;;;;;;;;;;;;;;;10471451;28;20109;-85
2021/03/28 14:05:43;;;;;;;4.10;1.60;;;;;;;;;;10471529;28;19905;-85
2021/03/28 14:11:03;;;;;;;6.40;2.05;;;;;;;;;;10473403;28;20494;-86
2021/03/28 14:16:04;;;;;;;6.28;1.83;;;;;;;;;;10477889;28;20113;-85
2021/03/28 14:21:14;;;;;;;4.20;1.75;;;;;;;;;;10464340;28;20136;-86
2021/03/28 14:26:15;;;;;;;5.10;1.85;;;;;;;;;;10459134;28;20029;-86
2021/03/28 14:31:16;;;;;;;3.90;1.58;;;;;;;;;;10473239;28;20505;-87
2021/03/28 14:36:50;;;;;;;;;;;;;;;;;;;;;
2021/03/28 14:42:04;;;;;;;3.58;1.35;;;;;;;;;;10442487;28;20112;-86
2021/03/28 14:47:10;;;;;;;4.65;1.45;;;;;;;;;;10469032;28;20037;-85
2021/03/28 14:52:35;;;;;;;4.35;1.45;;;;;;;;;;10469993;28;20057;-86
2021/03/28 14:57:46;;;;;;;3.88;1.70;;;;;;;;;;10463929;28;20060;-87
2021/03/28 15:02:47;;;;;;;3.80;1.55;;;;;;;;;;10459901;28;20075;-86
2021/03/28 15:07:51;;;;;;;5.68;1.55;;;;;;;;;;10462758;28;20071;-86
2021/03/28 15:13:01;;;;;;;2.88;1.23;;;;;;;;;;10462227;28;20064;-86
2021/03/28 15:18:20;;;;;;;3.05;1.33;;;;;;;;;;10452867;28;20041;-85
2021/03/28 15:23:53;;;;;;;2.75;1.30;;;;;;;;;;10470743;28;20096;-86
2021/03/28 15:29:00;;;;;;;4.25;1.50;;;;;;;;;;10471303;28;20395;-87
2021/03/28 15:34:27;;;;;;;4.95;1.38;;;;;;;;;;10452697;28;20037;-86
2021/03/28 15:39:34;;;;;;;5.00;1.50;;;;;;;;;;10461777;28;20039;-86
2021/03/28 15:44:57;;;;;;;5.13;1.50;;;;;;;;;;10452897;28;20033;-86
2021/03/28 15:50:11;;;;;;;4.13;1.38;;;;;;;;;;10462398;28;20333;-85
2021/03/28 15:55:31;;;;;;;3.90;1.40;;;;;;;;;;10465233;28;20033;-85
2021/03/28 16:01:36;;;;;;;3.63;1.48;;;;;;;;;;10469762;28;20112;-86
2021/03/28 16:06:24;;;;;;;3.88;1.30;;;;;;;;;;10456328;28;20108;-86
2021/03/28 16:11:50;;;;;;;2.63;1.20;;;;;;;;;;10459891;28;20036;-86
2021/03/28 16:16:57;;;;;;;3.22;1.25;;;;;;;;;;10477529;28;20033;-86
2021/03/28 16:22:07;;;;;;;4.75;1.40;;;;;;;;;;10478290;28;20041;-86
2021/03/28 16:27:25;;;;;;;3.10;1.40;;;;;;;;;;10473659;28;20044;-86
2021/03/28 16:32:54;;;;;;;3.83;1.42;;;;;;;;;;10489705;28;20025;-84
2021/03/28 16:38:07;;;;;;;3.70;1.30;;;;;;;;;;10464627;28;20080;-88
2021/03/28 16:43:21;;;;;;;3.10;1.25;;;;;;;;;;10464396;28;20025;-87
2021/03/28 16:48:27;;;;;;;3.47;1.42;;;;;;;;;;10474290;28;20037;-87
2021/03/28 16:53:41;;;;;;;3.72;1.42;;;;;;;;;;10478108;28;20111;-87
2021/03/28 16:58:51;;;;;;;3.53;1.20;;;;;;;;;;10465080;28;20502;-85
2021/03/28 17:04:22;;;;;;;2.55;1.20;;;;;;;;;;10470978;28;20024;-85
2021/03/28 17:09:38;;;;;;;4.07;1.30;;;;;;;;;;10486846;28;20060;-86
2021/03/28 17:15:14;;;;;;;3.00;1.15;;;;;;;;;;10477785;28;20398;-85
2021/03/28 17:20:32;;;;;;;3.85;1.50;;;;;;;;;;10490621;28;20021;-85
2021/03/28 17:25:41;;;;;;;3.33;1.30;;;;;;;;;;10477784;28;20029;-86
2021/03/28 17:30:55;;;;;;;3.23;1.17;;;;;;;;;;10474010;28;20033;-86
2021/03/28 17:36:23;;;;;;;4.03;1.38;;;;;;;;;;10471966;28;20044;-86
2021/03/28 17:41:43;;;;;;;3.75;1.35;;;;;;;;;;10470556;28;20116;-85
2021/03/28 17:46:54;;;;;;;4.68;1.73;;;;;;;;;;10472285;28;20053;-86
2021/03/28 17:52:22;;;;;;;5.10;1.80;;;;;;;;;;10468713;28;20029;-86
2021/03/28 17:57:28;;;;;;;3.97;1.65;;;;;;;;;;10462404;28;20045;-86
2021/03/28 18:02:34;;;;;;;3.65;1.40;;;;;;;;;;10473081;28;20507;-86
2021/03/28 18:07:59;;;;;;;4.85;1.48;;;;;;;;;;10472154;28;20384;-86
2021/03/28 18:13:10;;;;;;;3.38;1.55;;;;;;;;;;10488001;28;20029;-85
2021/03/28 18:18:24;;;;;;;4.05;1.70;;;;;;;;;;10471786;28;20094;-85
2021/03/28 18:23:46;;;;;;;3.15;1.40;;;;;;;;;;10470114;28;20442;-86
2021/03/28 18:28:47;;;;;;;4.22;1.77;;;;;;;;;;10469217;28;20036;-86
2021/03/28 18:33:56;;;;;;;6.15;1.83;;;;;;;;;;10468177;28;20037;-85
2021/03/28 18:39:18;;;;;;;3.85;1.50;;;;;;;;;;10482464;28;20036;-86
2021/03/28 18:44:25;;;;;;;4.22;1.55;;;;;;;;;;10467532;28;20033;-86
2021/03/28 18:49:27;;;;;;;4.30;1.80;;;;;;;;;;10479051;28;20040;-85
2021/03/28 18:54:29;;;;;;;5.90;2.13;;;;;;;;;;10493082;28;20067;-85
2021/03/28 18:59:33;;;;;;;5.38;2.15;;;;;;;;;;10471735;28;20040;-86
2021/03/28 19:04:44;;;;;;;6.88;2.50;;;;;;;;;;10469429;28;20039;-86
2021/03/28 19:10:06;;;;;;;5.07;2.28;;;;;;;;;;10461141;28;20510;-87
2021/03/28 19:15:36;;;;;;;6.55;2.40;;;;;;;;;;10455345;28;20033;-85
2021/03/28 19:20:42;;;;;;;4.97;1.98;;;;;;;;;;10451668;28;20055;-86
2021/03/28 19:25:47;;;;;;;4.15;1.80;;;;;;;;;;10451008;28;20025;-87
2021/03/28 19:30:49;;;;;;;6.22;2.30;;;;;;;;;;10458319;28;20057;-86
2021/03/28 19:35:53;;;;;;;4.63;2.50;;;;;;;;;;10456538;28;20033;-86
2021/03/28 19:41:09;;;;;;;4.22;1.80;;;;;;;;;;10457287;28;20372;-86
2021/03/28 19:51:42;;;;;;;6.35;2.53;;;;;;;;;;10486910;28;20065;-86
2021/03/28 19:56:50;;;;;;;3.88;1.77;;;;;;;;;;10456349;28;20082;-86
2021/03/28 20:01:54;;;;;;;4.57;2.10;;;;;;;;;;10466234;28;20041;-86
2021/03/28 20:06:55;;;;;;;4.97;2.20;;;;;;;;;;10466651;28;20037;-86
2021/03/28 20:11:59;;;;;;;4.45;2.13;;;;;;;;;;10467663;28;20036;-87
2021/03/28 20:17:00;;;;;;;4.45;1.98;;;;;;;;;;10472317;28;20044;-86
